createdAt,value
2023-08-23T00:01:42.359Z,17.27
2023-08-23T00:04:14.331Z,17.23
2023-08-23T00:06:43.318Z,17.18
2023-08-23T00:09:14.063Z,17.24
2023-08-23T00:11:43.073Z,17.23
2023-08-23T00:14:12.139Z,17.25
2023-08-23T00:16:41.992Z,17.26
2023-08-23T00:19:13.482Z,17.28
2023-08-23T00:21:42.752Z,17.27
2023-08-23T00:24:15.558Z,17.27
2023-08-23T00:26:50.094Z,17.28
2023-08-23T00:29:19.182Z,17.31
2023-08-23T00:31:48.299Z,17.23
2023-08-23T00:34:17.576Z,17.28
2023-08-23T00:36:47.950Z,17.34
2023-08-23T00:39:18.469Z,17.31
2023-08-23T00:41:48.026Z,17.43
2023-08-23T00:44:17.153Z,17.47
2023-08-23T00:46:46.545Z,17.21
2023-08-23T00:49:15.934Z,17.35
2023-08-23T00:51:45.332Z,17.32
2023-08-23T00:54:14.853Z,17.37
2023-08-23T00:56:45.458Z,17.15
2023-08-23T00:59:14.737Z,16.09
2023-08-23T01:01:43.894Z,17.03
2023-08-23T01:04:13.082Z,16.99
2023-08-23T01:06:54.379Z,16.09
2023-08-23T01:09:33.686Z,16.97
2023-08-23T01:12:11.477Z,17.13
2023-08-23T01:14:47.996Z,17.14
2023-08-23T01:17:21.277Z,17.16
2023-08-23T01:19:51.688Z,17.12
2023-08-23T01:22:25.900Z,17.00
2023-08-23T01:24:56.600Z,16.85
2023-08-23T01:27:25.623Z,16.84
2023-08-23T01:29:57.295Z,16.88
2023-08-23T01:32:37.644Z,16.80
2023-08-23T01:35:12.170Z,16.77
2023-08-23T01:37:45.992Z,16.76
2023-08-23T01:40:17.698Z,16.74
2023-08-23T01:42:48.735Z,16.78
2023-08-23T01:45:18.288Z,16.77
2023-08-23T01:47:47.514Z,16.80
2023-08-23T01:50:16.830Z,16.83
2023-08-23T01:52:46.050Z,16.79
2023-08-23T01:55:18.847Z,16.82
2023-08-23T01:57:48.090Z,16.78
2023-08-23T02:00:21.040Z,16.83
2023-08-23T02:02:50.027Z,16.78
2023-08-23T02:05:19.358Z,16.72
2023-08-23T02:07:49.635Z,16.84
2023-08-23T02:10:23.863Z,16.88
2023-08-23T02:12:52.969Z,17.07
2023-08-23T02:15:21.938Z,15.79
2023-08-23T02:17:52.556Z,16.86
2023-08-23T02:20:21.593Z,16.87
2023-08-23T02:22:52.785Z,16.69
2023-08-23T02:25:25.522Z,16.66
2023-08-23T02:27:54.716Z,16.66
2023-08-23T02:30:23.729Z,16.54
2023-08-23T02:32:55.265Z,16.61
2023-08-23T02:35:24.544Z,16.88
2023-08-23T02:37:54.851Z,16.86
2023-08-23T02:40:26.392Z,16.92
2023-08-23T02:42:57.182Z,16.87
2023-08-23T02:45:27.665Z,16.76
2023-08-23T02:47:56.614Z,16.70
2023-08-23T02:50:26.304Z,16.66
2023-08-23T02:52:55.715Z,16.41
2023-08-23T02:55:26.671Z,16.63
2023-08-23T02:57:55.646Z,16.53
2023-08-23T03:00:25.083Z,16.56
2023-08-23T03:02:56.684Z,16.55
2023-08-23T03:05:26.230Z,16.41
2023-08-23T03:07:55.421Z,16.55
2023-08-23T03:10:26.018Z,16.62
2023-08-23T03:12:55.323Z,15.30
2023-08-23T03:15:24.379Z,16.42
2023-08-23T03:17:53.614Z,16.14
2023-08-23T03:20:23.655Z,16.48
2023-08-23T03:22:52.503Z,16.42
2023-08-23T03:25:21.798Z,16.70
2023-08-23T03:27:53.893Z,16.72
2023-08-23T03:30:23.694Z,16.69
2023-08-23T03:32:55.966Z,16.53
2023-08-23T03:35:29.837Z,16.46
2023-08-23T03:38:02.230Z,16.67
2023-08-23T03:40:37.349Z,16.55
2023-08-23T03:43:08.101Z,16.71
2023-08-23T03:45:39.711Z,16.40
2023-08-23T03:48:09.020Z,16.41
2023-08-23T03:50:39.351Z,16.43
2023-08-23T03:53:09.684Z,16.52
2023-08-23T03:55:39.927Z,16.28
2023-08-23T03:58:10.652Z,16.37
2023-08-23T04:00:40.679Z,16.41
2023-08-23T04:03:10.529Z,15.24
2023-08-23T04:05:42.594Z,16.38
2023-08-23T04:08:13.682Z,16.32
2023-08-23T04:10:48.814Z,16.28
2023-08-23T04:13:20.487Z,16.61
2023-08-23T04:15:50.833Z,16.59
2023-08-23T04:18:20.004Z,16.61
2023-08-23T04:20:49.347Z,15.71
2023-08-23T04:23:18.841Z,16.57
2023-08-23T04:25:47.811Z,16.65
2023-08-23T04:28:17.218Z,16.19
2023-08-23T04:30:49.484Z,16.49
2023-08-23T04:38:22.674Z,16.41
2023-08-23T04:41:01.285Z,16.37
2023-08-23T04:43:35.391Z,16.39
2023-08-23T04:46:10.423Z,16.35
2023-08-23T04:48:40.909Z,16.27
2023-08-23T04:51:11.065Z,16.45
2023-08-23T04:53:40.233Z,16.38
2023-08-23T04:56:10.386Z,16.28
2023-08-23T04:58:39.874Z,16.21
2023-08-23T05:01:12.803Z,16.23
2023-08-23T05:03:44.785Z,16.27
2023-08-23T05:06:13.674Z,16.26
2023-08-23T05:08:42.704Z,16.28
2023-08-23T05:11:16.099Z,16.35
2023-08-23T05:13:45.106Z,16.40
2023-08-23T05:16:15.298Z,16.46
2023-08-23T05:18:44.202Z,16.49
2023-08-23T05:21:13.090Z,16.45
2023-08-23T05:23:42.137Z,16.65
2023-08-23T05:26:11.737Z,16.54
2023-08-23T05:28:40.565Z,16.71
2023-08-23T05:31:09.454Z,16.53
2023-08-23T05:33:40.404Z,16.85
2023-08-23T05:36:09.206Z,16.57
2023-08-23T05:38:40.147Z,16.90
2023-08-23T05:41:09.206Z,16.89
2023-08-23T05:43:37.988Z,16.81
2023-08-23T05:46:07.022Z,16.94
2023-08-23T05:48:37.187Z,16.88
2023-08-23T05:51:07.419Z,16.90
2023-08-23T05:53:36.798Z,17.12
2023-08-23T05:56:08.568Z,17.21
2023-08-23T05:58:37.723Z,17.31
2023-08-23T06:01:07.218Z,17.40
2023-08-23T06:03:36.401Z,17.69
2023-08-23T06:06:05.882Z,17.90
2023-08-23T06:08:36.792Z,18.13
2023-08-23T06:11:06.273Z,18.36
2023-08-23T06:13:38.452Z,18.53
2023-08-23T06:16:07.754Z,18.71
2023-08-23T06:18:36.749Z,18.73
2023-08-23T06:21:05.768Z,18.99
2023-08-23T06:23:38.114Z,19.11
2023-08-23T06:26:07.586Z,19.22
2023-08-23T06:28:36.939Z,19.35
2023-08-23T06:31:06.155Z,19.31
2023-08-23T06:33:35.754Z,19.54
2023-08-23T06:36:09.769Z,18.72
2023-08-23T06:38:42.958Z,19.61
2023-08-23T06:41:12.032Z,19.88
2023-08-23T06:43:42.284Z,19.40
2023-08-23T06:46:11.472Z,19.76
2023-08-23T06:48:41.860Z,19.80
2023-08-23T06:51:11.971Z,19.85
2023-08-23T06:53:42.765Z,19.85
2023-08-23T06:56:14.623Z,19.14
2023-08-23T06:58:44.683Z,19.92
2023-08-23T07:01:17.413Z,19.98
2023-08-23T07:03:47.534Z,19.92
2023-08-23T07:06:20.431Z,20.06
2023-08-23T07:08:53.261Z,20.03
2023-08-23T07:11:22.368Z,19.97
2023-08-23T07:13:51.813Z,19.93
2023-08-23T07:16:21.176Z,19.87
2023-08-23T07:18:50.513Z,19.63
2023-08-23T07:21:19.987Z,19.62
2023-08-23T07:23:49.276Z,19.54
2023-08-23T07:26:20.432Z,19.59
2023-08-23T07:28:49.613Z,19.61
2023-08-23T07:31:21.309Z,19.60
2023-08-23T07:33:50.498Z,19.66
2023-08-23T07:36:19.713Z,19.70
2023-08-23T07:38:49.254Z,19.91
2023-08-23T07:41:18.478Z,19.97
2023-08-23T07:43:50.622Z,19.97
2023-08-23T07:46:19.769Z,20.01
2023-08-23T07:48:48.981Z,19.86
2023-08-23T07:51:18.119Z,19.85
2023-08-23T07:53:48.410Z,19.70
2023-08-23T07:56:18.967Z,19.86
2023-08-23T07:58:49.677Z,19.74
2023-08-23T08:01:19.146Z,19.71
2023-08-23T08:03:49.153Z,18.89
2023-08-23T08:06:20.809Z,19.90
2023-08-23T08:08:50.093Z,19.92
2023-08-23T08:11:19.331Z,19.91
2023-08-23T08:13:53.151Z,19.77
2023-08-23T08:16:22.775Z,19.84
2023-08-23T08:18:52.032Z,19.70
2023-08-23T08:21:21.577Z,20.20
2023-08-23T08:23:51.390Z,20.14
2023-08-23T08:26:23.625Z,20.44
2023-08-23T08:28:55.735Z,20.60
2023-08-23T08:31:24.874Z,20.65
2023-08-23T08:33:54.355Z,20.83
2023-08-23T08:36:24.304Z,21.09
2023-08-23T08:38:53.593Z,21.28
2023-08-23T08:41:23.931Z,21.60
2023-08-23T08:43:55.463Z,20.92
2023-08-23T08:46:24.913Z,21.96
2023-08-23T08:48:54.274Z,22.16
2023-08-23T08:51:24.788Z,22.13
2023-08-23T08:53:56.147Z,22.19
2023-08-23T08:56:27.034Z,22.20
2023-08-23T08:58:58.368Z,21.59
2023-08-23T09:01:32.407Z,22.50
2023-08-23T09:04:02.672Z,22.62
2023-08-23T09:06:34.481Z,22.91
2023-08-23T09:09:04.600Z,23.15
2023-08-23T09:11:34.238Z,23.34
2023-08-23T09:14:16.294Z,23.57
2023-08-23T09:16:46.941Z,23.82
2023-08-23T09:19:17.416Z,23.87
2023-08-23T09:21:48.724Z,24.08
2023-08-23T09:24:19.688Z,24.24
2023-08-23T09:26:49.085Z,24.41
2023-08-23T09:29:20.038Z,24.52
2023-08-23T09:31:52.312Z,24.66
2023-08-23T09:34:21.516Z,24.74
2023-08-23T09:36:50.722Z,24.54
2023-08-23T09:39:20.695Z,24.71
2023-08-23T09:42:01.108Z,24.99
2023-08-23T09:44:32.763Z,25.14
2023-08-23T09:47:02.562Z,25.15
2023-08-23T09:49:35.963Z,25.47
2023-08-23T09:52:05.625Z,25.59
2023-08-23T09:54:48.381Z,25.71
2023-08-23T09:57:29.466Z,25.11
2023-08-23T10:00:02.159Z,25.92
2023-08-23T10:02:36.111Z,25.93
2023-08-23T10:05:08.200Z,26.16
2023-08-23T10:07:38.065Z,26.29
2023-08-23T10:10:08.959Z,26.43
2023-08-23T10:12:41.791Z,26.51
2023-08-23T10:15:14.618Z,26.60
2023-08-23T10:17:49.158Z,26.69
2023-08-23T10:20:18.769Z,26.77
2023-08-23T10:22:49.304Z,26.03
2023-08-23T10:25:19.809Z,26.74
2023-08-23T10:27:51.118Z,27.04
2023-08-23T10:30:26.803Z,27.12
2023-08-23T10:33:09.508Z,27.17
2023-08-23T10:35:38.992Z,27.12
2023-08-23T10:38:09.634Z,27.21
2023-08-23T10:40:40.300Z,27.20
2023-08-23T10:43:14.434Z,27.43
2023-08-23T10:46:04.016Z,27.37
2023-08-23T10:48:34.237Z,27.34
2023-08-23T10:51:03.822Z,26.89
2023-08-23T10:53:33.129Z,27.07
2023-08-23T10:56:02.862Z,27.15
2023-08-23T10:58:34.493Z,26.92
2023-08-23T11:01:05.732Z,27.04
2023-08-23T11:03:35.845Z,27.01
2023-08-23T11:06:05.320Z,26.99
2023-08-23T11:08:34.842Z,26.92
2023-08-23T11:11:04.920Z,26.71
2023-08-23T11:13:34.285Z,26.76
2023-08-23T11:16:05.409Z,26.38
2023-08-23T11:18:35.059Z,26.30
2023-08-23T11:21:05.225Z,26.72
2023-08-23T11:23:38.457Z,26.69
2023-08-23T11:26:08.794Z,27.07
2023-08-23T11:28:38.299Z,27.16
2023-08-23T11:31:10.624Z,27.04
2023-08-23T11:33:40.980Z,27.04
2023-08-23T11:36:11.011Z,27.18
2023-08-23T11:38:42.257Z,26.32
2023-08-23T11:41:11.457Z,27.15
2023-08-23T11:43:46.805Z,27.20
2023-08-23T11:46:19.643Z,27.06
2023-08-23T11:48:49.160Z,27.09
2023-08-23T11:51:18.308Z,27.17
2023-08-23T11:53:56.529Z,26.87
2023-08-23T11:56:29.689Z,27.34
2023-08-23T11:59:04.369Z,27.37
2023-08-23T12:01:36.404Z,27.32
2023-08-23T12:04:06.296Z,27.24
2023-08-23T12:06:35.777Z,27.26
2023-08-23T12:09:05.788Z,26.59
2023-08-23T12:11:35.094Z,27.12
2023-08-23T12:14:07.691Z,27.11
2023-08-23T12:16:38.809Z,27.45
2023-08-23T12:19:29.666Z,27.13
2023-08-23T12:21:59.712Z,27.13
2023-08-23T12:24:29.737Z,27.24
2023-08-23T12:27:00.410Z,27.30
2023-08-23T12:29:29.525Z,27.13
2023-08-23T12:31:59.865Z,27.15
2023-08-23T12:34:30.327Z,27.47
2023-08-23T12:36:59.985Z,27.57
2023-08-23T12:39:29.201Z,27.36
2023-08-23T12:41:59.189Z,27.52
2023-08-23T12:44:29.566Z,27.36
2023-08-23T12:47:02.804Z,27.30
2023-08-23T12:49:33.380Z,27.13
2023-08-23T12:52:02.657Z,27.18
2023-08-23T12:54:32.134Z,27.09
2023-08-23T12:57:01.398Z,27.21
2023-08-23T12:59:32.980Z,26.99
2023-08-23T13:02:03.439Z,26.86
2023-08-23T13:04:32.528Z,26.58
2023-08-23T13:07:02.095Z,26.68
2023-08-23T13:09:31.591Z,26.73
2023-08-23T13:12:01.670Z,26.52
2023-08-23T13:14:30.960Z,26.40
2023-08-23T13:17:00.586Z,26.59
2023-08-23T13:19:32.302Z,26.77
2023-08-23T13:22:01.523Z,26.58
2023-08-23T13:24:30.852Z,26.59
2023-08-23T13:27:00.699Z,26.33
2023-08-23T13:29:30.019Z,26.70
2023-08-23T13:32:02.214Z,26.50
2023-08-23T13:34:36.594Z,26.27
2023-08-23T13:37:06.636Z,26.30
2023-08-23T13:39:36.435Z,26.29
2023-08-23T13:42:06.730Z,26.04
2023-08-23T13:44:36.236Z,26.37
2023-08-23T13:47:04.994Z,26.10
2023-08-23T13:49:34.044Z,26.35
2023-08-23T13:52:04.876Z,26.38
2023-08-23T13:54:34.466Z,26.27
2023-08-23T13:57:04.295Z,26.34
2023-08-23T13:59:34.398Z,25.84
2023-08-23T14:02:04.216Z,26.24
2023-08-23T14:04:37.915Z,25.39
2023-08-23T14:07:08.837Z,26.12
2023-08-23T14:09:38.215Z,26.19
2023-08-23T14:12:08.120Z,26.11
2023-08-23T14:14:37.222Z,26.04
2023-08-23T14:17:06.410Z,26.17
2023-08-23T14:19:46.225Z,26.22
2023-08-23T14:22:16.981Z,26.08
2023-08-23T14:24:48.727Z,26.11
2023-08-23T14:27:18.255Z,25.84
2023-08-23T14:29:47.580Z,25.71
2023-08-23T14:32:19.305Z,25.70
2023-08-23T14:34:48.650Z,25.64
2023-08-23T14:37:19.353Z,25.72
2023-08-23T14:39:49.143Z,25.74
2023-08-23T14:42:18.331Z,25.68
2023-08-23T14:44:47.755Z,25.58
2023-08-23T14:47:35.142Z,25.67
2023-08-23T14:50:05.558Z,25.72
2023-08-23T14:52:37.124Z,25.50
2023-08-23T14:55:07.977Z,25.54
2023-08-23T14:57:38.092Z,25.48
2023-08-23T15:00:10.906Z,25.51
2023-08-23T15:02:43.818Z,25.36
2023-08-23T15:05:12.938Z,25.29
2023-08-23T15:07:43.650Z,25.18
2023-08-23T15:10:13.281Z,25.15
2023-08-23T15:12:42.754Z,24.94
2023-08-23T15:15:12.354Z,24.88
2023-08-23T15:17:41.985Z,24.99
2023-08-23T15:20:12.531Z,24.86
2023-08-23T15:22:43.929Z,25.20
2023-08-23T15:25:13.418Z,25.00
2023-08-23T15:27:47.777Z,23.91
2023-08-23T15:30:20.237Z,24.76
2023-08-23T15:32:52.103Z,24.53
2023-08-23T15:35:21.534Z,24.76
2023-08-23T15:37:54.622Z,24.87
2023-08-23T15:40:24.048Z,24.83
2023-08-23T15:42:53.656Z,24.91
2023-08-23T15:45:23.312Z,24.82
2023-08-23T15:47:55.425Z,22.91
2023-08-23T15:50:26.704Z,24.54
2023-08-23T15:52:57.286Z,24.57
2023-08-23T15:55:27.794Z,24.60
2023-08-23T15:57:57.412Z,24.67
2023-08-23T16:00:27.047Z,24.19
2023-08-23T16:02:56.404Z,24.06
2023-08-23T16:05:25.753Z,24.32
2023-08-23T16:07:56.456Z,24.13
2023-08-23T16:10:26.813Z,24.23
2023-08-23T16:12:56.659Z,24.30
2023-08-23T16:15:34.225Z,24.16
2023-08-23T16:18:04.468Z,24.02
2023-08-23T16:20:34.043Z,23.96
2023-08-23T16:23:04.656Z,23.96
2023-08-23T16:25:34.289Z,23.94
2023-08-23T16:28:03.952Z,24.03
2023-08-23T16:30:35.775Z,23.91
2023-08-23T16:33:06.264Z,23.80
2023-08-23T16:35:40.380Z,23.77
2023-08-23T16:38:13.051Z,23.75
2023-08-23T16:40:45.007Z,23.64
2023-08-23T16:43:19.497Z,23.64
2023-08-23T16:45:48.795Z,23.39
2023-08-23T16:48:21.540Z,23.38
2023-08-23T16:50:50.817Z,22.25
2023-08-23T16:53:21.397Z,23.05
2023-08-23T16:55:51.288Z,22.94
2023-08-23T16:58:22.738Z,23.00
2023-08-23T17:00:52.431Z,23.27
2023-08-23T17:03:22.062Z,23.02
2023-08-23T17:05:52.321Z,23.01
2023-08-23T17:08:23.529Z,22.99
2023-08-23T17:10:52.918Z,23.19
2023-08-23T17:13:22.145Z,21.93
2023-08-23T17:15:51.743Z,22.61
2023-08-23T17:18:21.319Z,22.82
2023-08-23T17:20:50.955Z,22.45
2023-08-23T17:23:24.295Z,22.52
2023-08-23T17:25:53.638Z,22.57
2023-08-23T17:28:22.864Z,22.56
2023-08-23T17:30:52.627Z,22.73
2023-08-23T17:33:24.894Z,22.66
2023-08-23T17:35:54.310Z,22.37
2023-08-23T17:38:28.216Z,22.18
2023-08-23T17:40:57.944Z,22.12
2023-08-23T17:43:27.927Z,22.16
2023-08-23T17:45:57.452Z,22.15
2023-08-23T17:48:27.189Z,21.87
2023-08-23T17:50:57.986Z,22.00
2023-08-23T17:53:30.819Z,21.95
2023-08-23T17:56:02.886Z,22.02
2023-08-23T17:58:32.765Z,22.05
2023-08-23T18:01:02.207Z,22.19
2023-08-23T18:03:32.159Z,21.91
2023-08-23T18:06:01.869Z,21.77
2023-08-23T18:08:32.790Z,21.70
2023-08-23T18:11:01.984Z,21.62
2023-08-23T18:13:32.205Z,21.49
2023-08-23T18:16:02.555Z,21.49
2023-08-23T18:18:32.153Z,21.48
2023-08-23T18:21:01.485Z,21.43
2023-08-23T18:23:34.319Z,21.34
2023-08-23T18:26:03.752Z,21.42
2023-08-23T18:28:33.546Z,21.30
2023-08-23T18:31:04.279Z,21.12
2023-08-23T18:33:36.530Z,21.02
2023-08-23T18:36:06.661Z,20.97
2023-08-23T18:38:39.143Z,20.87
2023-08-23T18:41:12.130Z,20.86
2023-08-23T18:43:43.618Z,20.85
2023-08-23T18:46:17.186Z,20.45
2023-08-23T18:48:47.063Z,20.51
2023-08-23T18:51:17.509Z,20.33
2023-08-23T18:53:49.017Z,20.57
2023-08-23T18:56:18.362Z,20.56
2023-08-23T18:58:51.070Z,20.54
2023-08-23T19:01:20.897Z,20.24
2023-08-23T19:03:51.757Z,20.19
2023-08-23T19:06:21.927Z,20.25
2023-08-23T19:08:53.059Z,20.20
2023-08-23T19:11:33.505Z,20.09
2023-08-23T19:14:05.895Z,20.10
2023-08-23T19:16:35.893Z,20.15
2023-08-23T19:19:05.742Z,20.18
2023-08-23T19:21:38.476Z,20.16
2023-08-23T19:24:09.922Z,20.13
2023-08-23T19:26:40.041Z,19.85
2023-08-23T19:29:09.923Z,20.01
2023-08-23T19:31:40.318Z,20.02
2023-08-23T19:34:10.969Z,19.81
2023-08-23T19:36:41.344Z,19.94
2023-08-23T19:39:17.712Z,19.73
2023-08-23T19:41:48.196Z,19.88
2023-08-23T19:44:22.557Z,19.88
2023-08-23T19:46:52.457Z,19.88
2023-08-23T19:49:22.254Z,19.71
2023-08-23T19:51:52.329Z,19.66
2023-08-23T19:54:24.558Z,19.56
2023-08-23T19:56:54.003Z,19.68
2023-08-23T19:59:23.702Z,19.75
2023-08-23T20:01:54.116Z,19.80
2023-08-23T20:04:23.686Z,19.78
2023-08-23T20:06:53.369Z,19.75
2023-08-23T20:09:24.345Z,19.78
2023-08-23T20:11:54.513Z,19.67
2023-08-23T20:14:24.701Z,19.67
2023-08-23T20:16:54.334Z,19.63
2023-08-23T20:19:23.956Z,19.59
2023-08-23T20:21:54.078Z,19.55
2023-08-23T20:24:25.657Z,19.47
2023-08-23T20:26:55.150Z,19.49
2023-08-23T20:29:24.593Z,19.48
2023-08-23T20:31:54.514Z,19.19
2023-08-23T20:34:25.330Z,18.27
2023-08-23T20:36:55.058Z,19.28
2023-08-23T20:39:27.538Z,19.30
2023-08-23T20:41:57.130Z,19.27
2023-08-23T20:44:27.051Z,19.21
2023-08-23T20:46:56.024Z,19.16
2023-08-23T20:49:25.794Z,18.94
2023-08-23T20:51:55.497Z,19.16
2023-08-23T20:54:29.764Z,19.11
2023-08-23T20:56:59.605Z,19.04
2023-08-23T20:59:29.493Z,19.01
2023-08-23T21:01:59.110Z,19.10
2023-08-23T21:04:31.364Z,18.91
2023-08-23T21:07:01.235Z,19.06
2023-08-23T21:09:31.867Z,19.00
2023-08-23T21:12:01.790Z,18.89
2023-08-23T21:14:33.465Z,18.88
2023-08-23T21:17:02.899Z,18.88
2023-08-23T21:19:32.172Z,18.63
2023-08-23T21:22:02.103Z,18.82
2023-08-23T21:24:32.686Z,18.77
2023-08-23T21:27:02.099Z,18.68
2023-08-23T21:29:31.367Z,18.64
2023-08-23T21:32:00.600Z,18.66
2023-08-23T21:34:29.801Z,18.64
2023-08-23T21:36:59.034Z,18.58
2023-08-23T21:39:28.436Z,18.56
2023-08-23T21:41:59.216Z,18.36
2023-08-23T21:44:28.652Z,18.57
2023-08-23T21:46:58.257Z,18.45
2023-08-23T21:49:27.699Z,18.48
2023-08-23T21:51:57.308Z,18.51
2023-08-23T21:54:26.639Z,18.49
2023-08-23T21:56:55.973Z,18.47
2023-08-23T21:59:27.048Z,18.47
2023-08-23T22:01:56.123Z,18.46
2023-08-23T22:04:25.468Z,17.61
2023-08-23T22:06:54.631Z,18.35
2023-08-23T22:09:24.234Z,18.34
2023-08-23T22:11:55.970Z,18.29
2023-08-23T22:14:26.606Z,18.25
2023-08-23T22:16:56.162Z,18.20
2023-08-23T22:19:25.600Z,18.23
2023-08-23T22:21:54.866Z,18.19
2023-08-23T22:24:24.157Z,17.98
2023-08-23T22:26:53.608Z,18.12
2023-08-23T22:29:22.640Z,17.99
2023-08-23T22:31:53.130Z,18.10
2023-08-23T22:34:22.458Z,17.94
2023-08-23T22:36:51.353Z,17.93
2023-08-23T22:39:20.507Z,18.04
2023-08-23T22:41:50.160Z,17.90
2023-08-23T22:44:19.523Z,17.88
2023-08-23T22:46:52.570Z,17.91
2023-08-23T22:49:21.889Z,17.81
2023-08-23T22:51:51.073Z,17.89
2023-08-23T22:54:20.387Z,17.70
2023-08-23T22:56:49.692Z,17.85
2023-08-23T22:59:23.549Z,17.84
2023-08-23T23:01:54.577Z,17.81
2023-08-23T23:04:23.909Z,16.70
2023-08-23T23:06:52.961Z,17.70
2023-08-23T23:09:22.307Z,17.53
2023-08-23T23:11:51.664Z,17.71
2023-08-23T23:14:22.248Z,17.68
2023-08-23T23:16:54.694Z,17.67
2023-08-23T23:19:23.917Z,17.69
2023-08-23T23:21:53.267Z,17.64
2023-08-23T23:24:24.718Z,17.59
2023-08-23T23:26:56.167Z,17.56
2023-08-23T23:29:26.515Z,17.52
2023-08-23T23:31:57.253Z,17.53
2023-08-23T23:34:26.717Z,17.50
2023-08-23T23:36:56.130Z,17.53
2023-08-23T23:39:25.402Z,17.50
2023-08-23T23:41:54.887Z,17.50
2023-08-23T23:44:24.260Z,17.43
2023-08-23T23:46:53.926Z,17.43
2023-08-23T23:49:25.330Z,17.47
2023-08-23T23:51:54.967Z,17.41
2023-08-23T23:54:24.558Z,17.44
2023-08-23T23:56:54.129Z,17.42
2023-08-23T23:59:25.688Z,17.53
